Maersk Sheerness — 9V5246 — position and weather

sailwx.info

Track history (hours):
 
Tides and Currents Weather Stations Pressure Air Temp Water Temp Dewpoint Dewpoint Depression Visibility Wind Speed Wind Dir Waves Ship Positions

Maersk Sheerness

Last reported at 2018-Jun-18 05:11 UTC. Time now 2018-Jun-19 04:22 UTC.
Position N 30°38' E 122°03'.

Length 335 m; draft 10.7 m.

Type: Ship (hazmat cat A). MMSI: 563001100.

Date/timePositionNaut miles runAvg speedWind from/ knotsBaromVisibWave heightAir tempDewpointWater temp
2018-Jun-18 05:11N 30°38' E 122°03'0 0.1
2018-Jun-18 03:48N 30°38' E 122°03'0 0.0
2018-Jun-18 02:51N 30°38' E 122°03'0 0.0
2018-Jun-18 01:17N 30°38' E 122°03'0 0.0
2018-Jun-18 00:44N 30°38' E 122°03'0 0.0
2018-Jun-18 00:23N 30°38' E 122°03'0 0.0
2018-Jun-17 23:59N 30°38' E 122°03'0 0.0
2018-Jun-17 21:14N 30°38' E 122°03'0 0.0
2018-Jun-17 17:41N 30°38' E 122°03'0 0.0
2018-Jun-17 15:17N 30°38' E 122°03'0 0.0
2018-Jun-17 14:59N 30°38' E 122°03'0 0.0
2018-Jun-17 12:41N 30°38' E 122°03'0 0.0
2018-Jun-17 10:05N 30°38' E 122°03'0 0.0
2018-Jun-17 09:47N 30°38' E 122°03'0 0.1
2018-Jun-17 09:29N 30°38' E 122°03'0 0.0
2018-Jun-17 06:50N 30°38' E 122°03'0 0.0
2018-Jun-17 04:56N 30°38' E 122°03'0 0.0
2018-Jun-17 04:11N 30°38' E 122°03'0 0.0
2018-Jun-17 03:08N 30°38' E 122°03'0 0.0
2018-Jun-17 02:50N 30°38' E 122°03'0 0.7
2018-Jun-17 02:29N 30°38' E 122°03'4 6.8
2018-Jun-17 01:51N 30°36' E 122°07'  
2018-Jun-14 06:41N 23°35' E 118°02'3 9.2
2018-Jun-14 06:24N 23°33' E 117°59'7 9.4
2018-Jun-14 05:40N 23°29' E 117°54'2 9.6
2018-Jun-14 05:27N 23°27' E 117°52'5 9.9
2018-Jun-14 04:59N 23°24' E 117°49'5 9.9
2018-Jun-14 04:26N 23°19' E 117°45'  
2018-Jun-09 01:59N 01°22' E 104°26'1020.3
2018-Jun-09 01:28N 01°16' E 104°17'919.3
2018-Jun-09 01:00N 01°15' E 104°08'1018.9
2018-Jun-09 00:29N 01°14' E 103°59'916.7
2018-Jun-08 23:58N 01°11' E 103°51'715.6
2018-Jun-08 23:30N 01°06' E 103°45'815.1
2018-Jun-08 22:59N 01°03' E 103°37'713.7
2018-Jun-08 22:30N 01°08' E 103°32'815.7
2018-Jun-08 22:00N 01°16' E 103°33'5 9.6
2018-Jun-08 21:30N 01°21' E 103°33'0 0.3
2018-Jun-08 20:52N 01°21' E 103°33'0 0.0
2018-Jun-08 20:26N 01°21' E 103°33'0 0.0
2018-Jun-08 19:41N 01°21' E 103°33'0 0.0
2018-Jun-08 19:25N 01°21' E 103°33'0 0.8
2018-Jun-08 18:59N 01°21' E 103°33'0 0.7
2018-Jun-08 18:29N 01°21' E 103°33'0 0.0
2018-Jun-08 17:59N 01°21' E 103°33'0 0.0
2018-Jun-08 17:29N 01°21' E 103°33'0 0.0
2018-Jun-08 16:55N 01°21' E 103°33'0 0.0
2018-Jun-08 16:29N 01°21' E 103°33'0 0.0
2018-Jun-08 15:41N 01°21' E 103°33'0 0.0
2018-Jun-08 15:25N 01°21' E 103°33'0 0.0
2018-Jun-08 14:50N 01°21' E 103°33'0 0.0
2018-Jun-08 14:08N 01°21' E 103°33'0 0.0
2018-Jun-08 13:59N 01°21' E 103°33'0 0.0
2018-Jun-08 13:30N 01°21' E 103°33'0 0.0
2018-Jun-08 12:57N 01°21' E 103°33'0 0.0
2018-Jun-08 12:27N 01°21' E 103°33'0 0.0
2018-Jun-08 11:59N 01°21' E 103°33'0 0.0
2018-Jun-08 11:23N 01°21' E 103°33'0 0.0
2018-Jun-08 10:57N 01°21' E 103°33'0 0.0
2018-Jun-08 10:30N 01°21' E 103°33'0 0.0
2018-Jun-08 09:59N 01°21' E 103°33'0 0.0
2018-Jun-08 09:26N 01°21' E 103°33'0 0.0
2018-Jun-08 08:48N 01°21' E 103°33'0 0.0
2018-Jun-08 08:24N 01°21' E 103°33'0 0.0
2018-Jun-08 07:53N 01°21' E 103°33'0 0.0
2018-Jun-08 07:27N 01°21' E 103°33'0 0.0
2018-Jun-08 06:53N 01°21' E 103°33'0 0.0
2018-Jun-08 06:24N 01°21' E 103°33'0 0.0
2018-Jun-08 05:59N 01°21' E 103°33'0 0.0
2018-Jun-08 05:27N 01°21' E 103°33'  
Track history (hours):
 
Tides and Currents Weather Stations Pressure Air Temp Water Temp Dewpoint Dewpoint Depression Visibility Wind Speed Wind Dir Waves Ship Positions

Maersk Sheerness

Last reported at 2018-Jun-18 05:11 UTC. Time now 2018-Jun-19 04:22 UTC.
Position N 30°38' E 122°03'.

Length 335 m; draft 10.7 m.

Type: Ship (hazmat cat A). MMSI: 563001100.

Date/timePositionNaut miles runAvg speedWind from/ knotsBaromVisibWave heightAir tempDewpointWater temp
2018-Jun-18 05:11N 30°38' E 122°03'0 0.1
2018-Jun-18 03:48N 30°38' E 122°03'0 0.0
2018-Jun-18 02:51N 30°38' E 122°03'0 0.0
2018-Jun-18 01:17N 30°38' E 122°03'0 0.0
2018-Jun-18 00:44N 30°38' E 122°03'0 0.0
2018-Jun-18 00:23N 30°38' E 122°03'0 0.0
2018-Jun-17 23:59N 30°38' E 122°03'0 0.0
2018-Jun-17 21:14N 30°38' E 122°03'0 0.0
2018-Jun-17 17:41N 30°38' E 122°03'0 0.0
2018-Jun-17 15:17N 30°38' E 122°03'0 0.0
2018-Jun-17 14:59N 30°38' E 122°03'0 0.0
2018-Jun-17 12:41N 30°38' E 122°03'0 0.0
2018-Jun-17 10:05N 30°38' E 122°03'0 0.0
2018-Jun-17 09:47N 30°38' E 122°03'0 0.1
2018-Jun-17 09:29N 30°38' E 122°03'0 0.0
2018-Jun-17 06:50N 30°38' E 122°03'0 0.0
2018-Jun-17 04:56N 30°38' E 122°03'0 0.0
2018-Jun-17 04:11N 30°38' E 122°03'0 0.0
2018-Jun-17 03:08N 30°38' E 122°03'0 0.0
2018-Jun-17 02:50N 30°38' E 122°03'0 0.7
2018-Jun-17 02:29N 30°38' E 122°03'4 6.8
2018-Jun-17 01:51N 30°36' E 122°07'  
2018-Jun-14 06:41N 23°35' E 118°02'3 9.2
2018-Jun-14 06:24N 23°33' E 117°59'7 9.4
2018-Jun-14 05:40N 23°29' E 117°54'2 9.6
2018-Jun-14 05:27N 23°27' E 117°52'5 9.9
2018-Jun-14 04:59N 23°24' E 117°49'5 9.9
2018-Jun-14 04:26N 23°19' E 117°45'  
2018-Jun-09 01:59N 01°22' E 104°26'1020.3
2018-Jun-09 01:28N 01°16' E 104°17'919.3
2018-Jun-09 01:00N 01°15' E 104°08'1018.9
2018-Jun-09 00:29N 01°14' E 103°59'916.7
2018-Jun-08 23:58N 01°11' E 103°51'715.6
2018-Jun-08 23:30N 01°06' E 103°45'815.1
2018-Jun-08 22:59N 01°03' E 103°37'713.7
2018-Jun-08 22:30N 01°08' E 103°32'815.7
2018-Jun-08 22:00N 01°16' E 103°33'5 9.6
2018-Jun-08 21:30N 01°21' E 103°33'0 0.3
2018-Jun-08 20:52N 01°21' E 103°33'0 0.0
2018-Jun-08 20:26N 01°21' E 103°33'0 0.0
2018-Jun-08 19:41N 01°21' E 103°33'0 0.0
2018-Jun-08 19:25N 01°21' E 103°33'0 0.8
2018-Jun-08 18:59N 01°21' E 103°33'0 0.7
2018-Jun-08 18:29N 01°21' E 103°33'0 0.0
2018-Jun-08 17:59N 01°21' E 103°33'0 0.0
2018-Jun-08 17:29N 01°21' E 103°33'0 0.0
2018-Jun-08 16:55N 01°21' E 103°33'0 0.0
2018-Jun-08 16:29N 01°21' E 103°33'0 0.0
2018-Jun-08 15:41N 01°21' E 103°33'0 0.0
2018-Jun-08 15:25N 01°21' E 103°33'0 0.0
2018-Jun-08 14:50N 01°21' E 103°33'0 0.0
2018-Jun-08 14:08N 01°21' E 103°33'0 0.0
2018-Jun-08 13:59N 01°21' E 103°33'0 0.0
2018-Jun-08 13:30N 01°21' E 103°33'0 0.0
2018-Jun-08 12:57N 01°21' E 103°33'0 0.0
2018-Jun-08 12:27N 01°21' E 103°33'0 0.0
2018-Jun-08 11:59N 01°21' E 103°33'0 0.0
2018-Jun-08 11:23N 01°21' E 103°33'0 0.0
2018-Jun-08 10:57N 01°21' E 103°33'0 0.0
2018-Jun-08 10:30N 01°21' E 103°33'0 0.0
2018-Jun-08 09:59N 01°21' E 103°33'0 0.0
2018-Jun-08 09:26N 01°21' E 103°33'0 0.0
2018-Jun-08 08:48N 01°21' E 103°33'0 0.0
2018-Jun-08 08:24N 01°21' E 103°33'0 0.0
2018-Jun-08 07:53N 01°21' E 103°33'0 0.0
2018-Jun-08 07:27N 01°21' E 103°33'0 0.0
2018-Jun-08 06:53N 01°21' E 103°33'0 0.0
2018-Jun-08 06:24N 01°21' E 103°33'0 0.0
2018-Jun-08 05:59N 01°21' E 103°33'0 0.0
2018-Jun-08 05:27N 01°21' E 103°33'  

Dump ship's entire track history